KSTL/STL METAR and TAF weather

Enter ICAO airport designator
Station Type Date Time Source
KSTL METAR 2019/12/09 21:51 UTC NOAA

KSTL 092151Z 30014KT 7SM BKN019 OVC025 11/07 A2969 RMK AO2 SLP053 T01060072


Station Type Date Time Source
KSTL Decoded METAR 2019/12/09 21:51 UTC NOAA

LAMBERT-ST LOUIS INTERNATIONAL AIRPORT , MO, United States (KSTL) 38-45N 90-22W 171M
Dec 09, 2019 - 04:51 PM EST / 2019.12.09 2151 UTC
Wind: from the WNW (300 degrees) at 16 MPH (14 KT):0
Visibility: 7 mile(s):0
Sky conditions: overcast
Temperature: 51.1 F (10.6 C)
Dew Point: 45.0 F (7.2 C)
Relative Humidity: 79%
Pressure (altimeter): 29.69 in. Hg (1005 hPa)
ob: KSTL 092151Z 30014KT 7SM BKN019 OVC025 11/07 A2969 RMK AO2 SLP053 T01060072
cycle: 22

Station Type Date Time Source
KSTL TAF 2019/12/09 21:58 UTC NOAA

TAF
AMD KSTL 092057Z 0921/1024 30015G25KT 6SM BR OVC015
TEMPO 0921/0923 BKN008
FM092300 30015G26KT P6SM OVC025
FM100100 30013G25KT P6SM BKN060
FM101100 30010KT P6SM BKN250

Example: see airport list